sensor_id;sensor_type;location;lat;lon;timestamp;pressure;altitude;pressure_sealevel;temperature;humidity
73341;BME280;61578;52.002;5.468;2023-01-23T00:00:14;103535.78;;;3.03;84.56
73341;BME280;61578;52.002;5.468;2023-01-23T00:00:46;103539.31;;;3.07;84.29
73341;BME280;61578;52.002;5.468;2023-01-23T00:01:28;103528.75;;;3.01;84.42
73341;BME280;61578;52.002;5.468;2023-01-23T00:02:00;103520.88;;;2.99;84.56
73341;BME280;61578;52.002;5.468;2023-01-23T00:02:31;103527.03;;;3.06;84.50
73341;BME280;61578;52.002;5.468;2023-01-23T00:03:02;103523.53;;;3.02;84.66
73341;BME280;61578;52.002;5.468;2023-01-23T00:03:33;103534.06;;;3.05;84.86
73341;BME280;61578;52.002;5.468;2023-01-23T00:04:04;103534.06;;;3.05;84.41
73341;BME280;61578;52.002;5.468;2023-01-23T00:04:35;103536.69;;;3.08;84.28
73341;BME280;61578;52.002;5.468;2023-01-23T00:05:06;103536.69;;;3.07;84.59
73341;BME280;61578;52.002;5.468;2023-01-23T00:05:37;103535.78;;;3.06;84.60
73341;BME280;61578;52.002;5.468;2023-01-23T00:06:11;103532.31;;;3.07;84.37
73341;BME280;61578;52.002;5.468;2023-01-23T00:06:44;103526.97;;;2.98;84.62
73341;BME280;61578;52.002;5.468;2023-01-23T00:07:15;103534.06;;;3.05;84.71
73341;BME280;61578;52.002;5.468;2023-01-23T00:07:46;103546.28;;;3.06;84.39
73341;BME280;61578;52.002;5.468;2023-01-23T00:08:17;103541.94;;;3.08;84.41
73341;BME280;61578;52.002;5.468;2023-01-23T00:08:50;103543.72;;;3.09;84.65
73341;BME280;61578;52.002;5.468;2023-01-23T00:09:21;103538.44;;;3.05;84.25
73341;BME280;61578;52.002;5.468;2023-01-23T00:09:52;103539.28;;;3.04;84.29
73341;BME280;61578;52.002;5.468;2023-01-23T00:10:23;103541.09;;;3.09;84.63
73341;BME280;61578;52.002;5.468;2023-01-23T00:10:54;103541.03;;;3.06;84.31
73341;BME280;61578;52.002;5.468;2023-01-23T00:11:27;103541.06;;;3.08;84.78
73341;BME280;61578;52.002;5.468;2023-01-23T00:11:59;103545.44;;;3.04;84.64
73341;BME280;61578;52.002;5.468;2023-01-23T00:12:30;103528.75;;;2.99;84.51
73341;BME280;61578;52.002;5.468;2023-01-23T00:13:00;103538.44;;;3.05;84.60
73341;BME280;61578;52.002;5.468;2023-01-23T00:13:32;103537.53;;;3.06;84.61
73341;BME280;61578;52.002;5.468;2023-01-23T00:14:04;103538.41;;;3.06;84.55
73341;BME280;61578;52.002;5.468;2023-01-23T00:14:35;103539.31;;;3.05;84.71
73341;BME280;61578;52.002;5.468;2023-01-23T00:15:06;103541.94;;;3.05;84.30
73341;BME280;61578;52.002;5.468;2023-01-23T00:15:38;103535.81;;;3.05;84.73
73341;BME280;61578;52.002;5.468;2023-01-23T00:16:16;103543.66;;;3.06;84.84
73341;BME280;61578;52.002;5.468;2023-01-23T00:16:49;103538.41;;;3.03;84.72
73341;BME280;61578;52.002;5.468;2023-01-23T00:17:19;103525.19;;;2.95;84.66
73341;BME280;61578;52.002;5.468;2023-01-23T00:17:50;103533.13;;;3.00;84.74
73341;BME280;61578;52.002;5.468;2023-01-23T00:18:21;103548.94;;;3.05;84.91
73341;BME280;61578;52.002;5.468;2023-01-23T00:18:52;103548.03;;;3.06;84.69
73341;BME280;61578;52.002;5.468;2023-01-23T00:19:24;103546.31;;;3.05;84.66
73341;BME280;61578;52.002;5.468;2023-01-23T00:19:54;103541.94;;;3.05;84.58
73341;BME280;61578;52.002;5.468;2023-01-23T00:20:25;103544.53;;;3.02;85.01
73341;BME280;61578;52.002;5.468;2023-01-23T00:20:56;103544.53;;;3.02;85.03
73341;BME280;61578;52.002;5.468;2023-01-23T00:21:29;103536.66;;;3.02;84.66
73341;BME280;61578;52.002;5.468;2023-01-23T00:22:00;103541.03;;;3.06;84.74
73341;BME280;61578;52.002;5.468;2023-01-23T00:22:31;103547.19;;;3.05;84.69
73341;BME280;61578;52.002;5.468;2023-01-23T00:23:02;103541.94;;;3.05;84.73
73341;BME280;61578;52.002;5.468;2023-01-23T00:23:33;103545.41;;;3.06;84.83
73341;BME280;61578;52.002;5.468;2023-01-23T00:24:04;103546.31;;;3.05;84.98
73341;BME280;61578;52.002;5.468;2023-01-23T00:24:35;103544.53;;;3.02;85.18
73341;BME280;61578;52.002;5.468;2023-01-23T00:25:06;103540.13;;;3.01;85.27
73341;BME280;61578;52.002;5.468;2023-01-23T00:25:37;103538.38;;;3.00;84.94
73341;BME280;61578;52.002;5.468;2023-01-23T00:26:12;103543.66;;;3.06;85.09
73341;BME280;61578;52.002;5.468;2023-01-23T00:26:46;103524.19;;;2.83;85.01
73341;BME280;61578;52.002;5.468;2023-01-23T00:27:17;103552.41;;;3.02;84.97
73341;BME280;61578;52.002;5.468;2023-01-23T00:27:48;103541.91;;;3.02;84.97
73341;BME280;61578;52.002;5.468;2023-01-23T00:28:19;103552.38;;;3.01;85.30
73341;BME280;61578;52.002;5.468;2023-01-23T00:28:50;103545.38;;;3.00;85.17
73341;BME280;61578;52.002;5.468;2023-01-23T00:29:22;103548.81;;;2.94;85.16
73341;BME280;61578;52.002;5.468;2023-01-23T00:29:53;103548.03;;;3.03;85.51
73341;BME280;61578;52.002;5.468;2023-01-23T00:30:23;103543.66;;;3.03;85.25
73341;BME280;61578;52.002;5.468;2023-01-23T00:31:07;103546.28;;;3.03;85.51
73341;BME280;61578;52.002;5.468;2023-01-23T00:31:42;103546.28;;;3.03;85.29
73341;BME280;61578;52.002;5.468;2023-01-23T00:32:13;103544.53;;;3.02;85.36
73341;BME280;61578;52.002;5.468;2023-01-23T00:32:44;103534.84;;;2.98;85.28
73341;BME280;61578;52.002;5.468;2023-01-23T00:33:14;103544.53;;;3.04;85.32
73341;BME280;61578;52.002;5.468;2023-01-23T00:33:45;103526.06;;;2.96;85.07
73341;BME280;61578;52.002;5.468;2023-01-23T00:34:16;103556.75;;;3.00;85.62
73341;BME280;61578;52.002;5.468;2023-01-23T00:34:47;103541.81;;;2.96;85.40
73341;BME280;61578;52.002;5.468;2023-01-23T00:35:18;103547.09;;;2.97;85.42
73341;BME280;61578;52.002;5.468;2023-01-23T00:35:53;103551.50;;;3.02;85.05
73341;BME280;61578;52.002;5.468;2023-01-23T00:36:29;103540.97;;;2.99;85.63
73341;BME280;61578;52.002;5.468;2023-01-23T00:37:02;103543.59;;;2.99;85.29
73341;BME280;61578;52.002;5.468;2023-01-23T00:37:33;103545.31;;;2.96;85.75
73341;BME280;61578;52.002;5.468;2023-01-23T00:38:04;103554.06;;;2.95;85.62
73341;BME280;61578;52.002;5.468;2023-01-23T00:38:35;103531.25;;;2.88;85.65
73341;BME280;61578;52.002;5.468;2023-01-23T00:39:18;103534.75;;;2.89;85.64
73341;BME280;61578;52.002;5.468;2023-01-23T00:39:50;103533.88;;;2.90;85.68
73341;BME280;61578;52.002;5.468;2023-01-23T00:40:21;103543.56;;;2.97;85.34
73341;BME280;61578;52.002;5.468;2023-01-23T00:40:52;103537.47;;;2.95;85.40
73341;BME280;61578;52.002;5.468;2023-01-23T00:41:25;103533.88;;;2.90;85.63
73341;BME280;61578;52.002;5.468;2023-01-23T00:41:56;103533.88;;;2.90;85.58
73341;BME280;61578;52.002;5.468;2023-01-23T00:42:27;103548.81;;;2.94;85.51
73341;BME280;61578;52.002;5.468;2023-01-23T00:42:57;103538.31;;;2.94;85.80
73341;BME280;61578;52.002;5.468;2023-01-23T00:43:29;103537.41;;;2.90;85.80
73341;BME280;61578;52.002;5.468;2023-01-23T00:44:00;103540.94;;;2.94;85.63
73341;BME280;61578;52.002;5.468;2023-01-23T00:44:31;103538.31;;;2.92;85.62
73341;BME280;61578;52.002;5.468;2023-01-23T00:45:02;103532.06;;;2.83;86.04
73341;BME280;61578;52.002;5.468;2023-01-23T00:45:34;103534.75;;;2.89;85.95
73341;BME280;61578;52.002;5.468;2023-01-23T00:46:07;103543.56;;;2.94;85.97
73341;BME280;61578;52.002;5.468;2023-01-23T00:46:38;103546.16;;;2.92;86.10
73341;BME280;61578;52.002;5.468;2023-01-23T00:47:09;103506.59;;;2.73;85.96
73341;BME280;61578;52.002;5.468;2023-01-23T00:47:40;103538.28;;;2.91;85.93
73341;BME280;61578;52.002;5.468;2023-01-23T00:48:10;103510.13;;;2.75;85.91
73341;BME280;61578;52.002;5.468;2023-01-23T00:48:41;103537.41;;;2.90;86.07
73341;BME280;61578;52.002;5.468;2023-01-23T00:49:12;103541.78;;;2.91;85.96
73341;BME280;61578;52.002;5.468;2023-01-23T00:49:46;103540.91;;;2.91;85.92
73341;BME280;61578;52.002;5.468;2023-01-23T00:50:17;103539.13;;;2.88;86.12
73341;BME280;61578;52.002;5.468;2023-01-23T00:50:49;103540.91;;;2.91;86.25
73341;BME280;61578;52.002;5.468;2023-01-23T00:51:20;103546.16;;;2.92;86.19
73341;BME280;61578;52.002;5.468;2023-01-23T00:51:51;103539.19;;;2.93;85.92
73341;BME280;61578;52.002;5.468;2023-01-23T00:52:26;103535.59;;;2.88;85.62
73341;BME280;61578;52.002;5.468;2023-01-23T00:52:57;103537.44;;;2.93;85.61
73341;BME280;61578;52.002;5.468;2023-01-23T00:53:28;103544.44;;;2.96;86.06
73341;BME280;61578;52.002;5.468;2023-01-23T00:53:59;103533.00;;;2.89;86.15
73341;BME280;61578;52.002;5.468;2023-01-23T00:54:31;103540.03;;;2.92;86.05
73341;BME280;61578;52.002;5.468;2023-01-23T00:55:02;103544.44;;;2.94;85.94
73341;BME280;61578;52.002;5.468;2023-01-23T00:55:34;103546.16;;;2.91;86.25
73341;BME280;61578;52.002;5.468;2023-01-23T00:56:05;103547.00;;;2.90;86.34
73341;BME280;61578;52.002;5.468;2023-01-23T00:56:36;103548.81;;;2.94;86.05
73341;BME280;61578;52.002;5.468;2023-01-23T00:57:08;103535.59;;;2.88;85.96
73341;BME280;61578;52.002;5.468;2023-01-23T00:57:38;103537.34;;;2.87;85.78
73341;BME280;61578;52.002;5.468;2023-01-23T00:58:09;103533.88;;;2.88;86.18
73341;BME280;61578;52.002;5.468;2023-01-23T00:58:40;103549.59;;;2.88;85.92
73341;BME280;61578;52.002;5.468;2023-01-23T00:59:11;103531.22;;;2.84;86.07
73341;BME280;61578;52.002;5.468;2023-01-23T00:59:42;103529.47;;;2.84;86.05
73341;BME280;61578;52.002;5.468;2023-01-23T01:00:13;103532.97;;;2.88;86.22
73341;BME280;61578;52.002;5.468;2023-01-23T01:00:44;103516.16;;;2.69;86.12
73341;BME280;61578;52.002;5.468;2023-01-23T01:01:16;103533.88;;;2.88;86.18
73341;BME280;61578;52.002;5.468;2023-01-23T01:01:47;103550.59;;;2.95;85.87
73341;BME280;61578;52.002;5.468;2023-01-23T01:02:18;103544.41;;;2.91;85.99
73341;BME280;61578;52.002;5.468;2023-01-23T01:02:48;103540.06;;;2.93;85.87
73341;BME280;61578;52.002;5.468;2023-01-23T01:03:20;103526.88;;;2.89;85.93
73341;BME280;61578;52.002;5.468;2023-01-23T01:03:51;103543.53;;;2.91;86.14
73341;BME280;61578;52.002;5.468;2023-01-23T01:04:21;103547.94;;;2.93;86.28
73341;BME280;61578;52.002;5.468;2023-01-23T01:04:52;103538.31;;;2.94;86.01
73341;BME280;61578;52.002;5.468;2023-01-23T01:05:23;103546.19;;;2.94;85.92
73341;BME280;61578;52.002;5.468;2023-01-23T01:05:53;103547.91;;;2.92;86.10
73341;BME280;61578;52.002;5.468;2023-01-23T01:06:25;103507.41;;;2.69;85.96
73341;BME280;61578;52.002;5.468;2023-01-23T01:06:56;103541.78;;;2.91;86.24
73341;BME280;61578;52.002;5.468;2023-01-23T01:07:27;103539.13;;;2.90;85.93
73341;BME280;61578;52.002;5.468;2023-01-23T01:07:58;103545.31;;;2.93;86.38
73341;BME280;61578;52.002;5.468;2023-01-23T01:08:29;103549.69;;;2.93;86.29
73341;BME280;61578;52.002;5.468;2023-01-23T01:08:59;103534.78;;;2.92;86.41
73341;BME280;61578;52.002;5.468;2023-01-23T01:09:30;103532.09;;;2.84;86.36
73341;BME280;61578;52.002;5.468;2023-01-23T01:10:01;103536.53;;;2.91;86.23
73341;BME280;61578;52.002;5.468;2023-01-23T01:10:33;103539.09;;;2.87;86.24
73341;BME280;61578;52.002;5.468;2023-01-23T01:11:04;103498.63;;;2.65;86.13
73341;BME280;61578;52.002;5.468;2023-01-23T01:11:35;103532.97;;;2.88;86.36
73341;BME280;61578;52.002;5.468;2023-01-23T01:12:06;103539.09;;;2.87;86.15
73341;BME280;61578;52.002;5.468;2023-01-23T01:12:37;103533.03;;;2.91;86.53
73341;BME280;61578;52.002;5.468;2023-01-23T01:13:09;103545.28;;;2.90;86.62
73341;BME280;61578;52.002;5.468;2023-01-23T01:13:41;103529.47;;;2.87;86.41
73341;BME280;61578;52.002;5.468;2023-01-23T01:14:12;103474.94;;;2.57;86.46
73341;BME280;61578;52.002;5.468;2023-01-23T01:14:43;103526.03;;;2.90;86.22
73341;BME280;61578;52.002;5.468;2023-01-23T01:15:14;103513.72;;;2.83;86.47
73341;BME280;61578;52.002;5.468;2023-01-23T01:15:50;103528.63;;;2.88;85.98
73341;BME280;61578;52.002;5.468;2023-01-23T01:16:22;103529.50;;;2.89;86.38
73341;BME280;61578;52.002;5.468;2023-01-23T01:16:53;103537.34;;;2.87;86.41
73341;BME280;61578;52.002;5.468;2023-01-23T01:17:24;103531.19;;;2.85;86.32
73341;BME280;61578;52.002;5.468;2023-01-23T01:17:56;103480.22;;;2.61;86.36
73341;BME280;61578;52.002;5.468;2023-01-23T01:18:28;103526.84;;;2.87;86.40
73341;BME280;61578;52.002;5.468;2023-01-23T01:18:59;103524.25;;;2.89;86.34
73341;BME280;61578;52.002;5.468;2023-01-23T01:19:30;103530.38;;;2.89;86.51
73341;BME280;61578;52.002;5.468;2023-01-23T01:20:03;103522.53;;;2.91;86.42
73341;BME280;61578;52.002;5.468;2023-01-23T01:20:34;103530.38;;;2.89;86.41
73341;BME280;61578;52.002;5.468;2023-01-23T01:21:11;103522.50;;;2.89;86.06
73341;BME280;61578;52.002;5.468;2023-01-23T01:21:44;103530.44;;;2.92;86.16
73341;BME280;61578;52.002;5.468;2023-01-23T01:22:14;103527.75;;;2.89;86.56
73341;BME280;61578;52.002;5.468;2023-01-23T01:22:45;103529.53;;;2.90;86.29
73341;BME280;61578;52.002;5.468;2023-01-23T01:23:16;103533.03;;;2.91;86.27
73341;BME280;61578;52.002;5.468;2023-01-23T01:23:48;103532.97;;;2.85;86.50
73341;BME280;61578;52.002;5.468;2023-01-23T01:24:19;103534.78;;;2.92;86.43
73341;BME280;61578;52.002;5.468;2023-01-23T01:24:50;103536.53;;;2.91;86.46
73341;BME280;61578;52.002;5.468;2023-01-23T01:25:21;103532.16;;;2.90;86.48
73341;BME280;61578;52.002;5.468;2023-01-23T01:25:51;103529.53;;;2.92;86.52
73341;BME280;61578;52.002;5.468;2023-01-23T01:26:22;103527.78;;;2.91;86.61
73341;BME280;61578;52.002;5.468;2023-01-23T01:26:55;103531.25;;;2.90;86.56
73341;BME280;61578;52.002;5.468;2023-01-23T01:27:27;103512.81;;;2.82;86.68
73341;BME280;61578;52.002;5.468;2023-01-23T01:27:58;103530.41;;;2.91;86.59
73341;BME280;61578;52.002;5.468;2023-01-23T01:28:30;103526.91;;;2.90;86.32
73341;BME280;61578;52.002;5.468;2023-01-23T01:29:02;103534.75;;;2.89;86.48
73341;BME280;61578;52.002;5.468;2023-01-23T01:29:33;103527.78;;;2.91;86.68
73341;BME280;61578;52.002;5.468;2023-01-23T01:30:04;103524.25;;;2.89;86.53
73341;BME280;61578;52.002;5.468;2023-01-23T01:30:36;103519.88;;;2.89;86.62
73341;BME280;61578;52.002;5.468;2023-01-23T01:31:12;103497.94;;;2.80;86.64
73341;BME280;61578;52.002;5.468;2023-01-23T01:31:44;103467.13;;;2.62;86.52
73341;BME280;61578;52.002;5.468;2023-01-23T01:32:16;103522.56;;;2.92;86.67
73341;BME280;61578;52.002;5.468;2023-01-23T01:32:47;103512.03;;;2.89;86.30
73341;BME280;61578;52.002;5.468;2023-01-23T01:33:18;103518.16;;;2.91;86.28
73341;BME280;61578;52.002;5.468;2023-01-23T01:33:49;103517.31;;;2.92;86.72
73341;BME280;61578;52.002;5.468;2023-01-23T01:34:19;103513.78;;;2.90;86.61
73341;BME280;61578;52.002;5.468;2023-01-23T01:34:51;103518.16;;;2.90;86.53
73341;BME280;61578;52.002;5.468;2023-01-23T01:35:22;103518.19;;;2.96;86.09
73341;BME280;61578;52.002;5.468;2023-01-23T01:35:53;103520.84;;;2.94;86.39
73341;BME280;61578;52.002;5.468;2023-01-23T01:36:25;103525.19;;;2.94;86.33
73341;BME280;61578;52.002;5.468;2023-01-23T01:36:56;103490.81;;;2.70;86.30
73341;BME280;61578;52.002;5.468;2023-01-23T01:37:27;103528.72;;;2.94;86.45
73341;BME280;61578;52.002;5.468;2023-01-23T01:37:59;103527.81;;;2.94;86.44
73341;BME280;61578;52.002;5.468;2023-01-23T01:38:29;103527.81;;;2.94;86.16
73341;BME280;61578;52.002;5.468;2023-01-23T01:39:00;103525.19;;;2.92;86.23
73341;BME280;61578;52.002;5.468;2023-01-23T01:39:31;103538.28;;;2.91;86.14
73341;BME280;61578;52.002;5.468;2023-01-23T01:40:06;103538.31;;;2.92;86.65
73341;BME280;61578;52.002;5.468;2023-01-23T01:40:40;103545.28;;;2.92;86.55
73341;BME280;61578;52.002;5.468;2023-01-23T01:41:12;103542.69;;;2.93;86.41
73341;BME280;61578;52.002;5.468;2023-01-23T01:41:43;103538.28;;;2.91;86.64
73341;BME280;61578;52.002;5.468;2023-01-23T01:42:14;103540.91;;;2.91;86.64
73341;BME280;61578;52.002;5.468;2023-01-23T01:42:58;103551.41;;;2.92;86.35
73341;BME280;61578;52.002;5.468;2023-01-23T01:43:34;103539.13;;;2.90;86.25
73341;BME280;61578;52.002;5.468;2023-01-23T01:44:06;103542.66;;;2.90;86.28
73341;BME280;61578;52.002;5.468;2023-01-23T01:44:53;103525.94;;;2.82;86.39
73341;BME280;61578;52.002;5.468;2023-01-23T01:46:07;103540.91;;;2.92;86.58
73341;BME280;61578;52.002;5.468;2023-01-23T01:46:38;103537.34;;;2.87;86.75
73341;BME280;61578;52.002;5.468;2023-01-23T01:47:09;103482.00;;;2.62;86.82
73341;BME280;61578;52.002;5.468;2023-01-23T01:47:45;103547.88;;;2.90;86.58
73341;BME280;61578;52.002;5.468;2023-01-23T01:48:18;103545.28;;;2.92;86.81
73341;BME280;61578;52.002;5.468;2023-01-23T01:49:40;103502.13;;;2.63;86.44
73341;BME280;61578;52.002;5.468;2023-01-23T01:50:11;103547.91;;;2.92;86.51
73341;BME280;61578;52.002;5.468;2023-01-23T01:50:43;103546.09;;;2.88;86.62
73341;BME280;61578;52.002;5.468;2023-01-23T01:51:37;103549.59;;;2.87;86.58
73341;BME280;61578;52.002;5.468;2023-01-23T01:52:15;103547.94;;;2.93;86.76
73341;BME280;61578;52.002;5.468;2023-01-23T01:52:49;103490.69;;;2.57;86.66
73341;BME280;61578;52.002;5.468;2023-01-23T01:53:25;103546.97;;;2.87;86.66
73341;BME280;61578;52.002;5.468;2023-01-23T01:55:09;103552.31;;;2.94;86.73
73341;BME280;61578;52.002;5.468;2023-01-23T01:55:41;103551.44;;;2.95;86.66
73341;BME280;61578;52.002;5.468;2023-01-23T01:56:13;103547.06;;;2.93;86.62
73341;BME280;61578;52.002;5.468;2023-01-23T01:57:53;103545.34;;;2.95;86.55
73341;BME280;61578;52.002;5.468;2023-01-23T01:58:26;103538.31;;;2.92;86.45
73341;BME280;61578;52.002;5.468;2023-01-23T01:58:59;103503.03;;;2.68;86.50
73341;BME280;61578;52.002;5.468;2023-01-23T01:59:40;103540.94;;;2.95;86.69
73341;BME280;61578;52.002;5.468;2023-01-23T02:00:23;103540.91;;;2.91;86.37
73341;BME280;61578;52.002;5.468;2023-01-23T02:00:54;103549.72;;;2.97;86.43
73341;BME280;61578;52.002;5.468;2023-01-23T02:01:26;103542.72;;;2.98;86.42
73341;BME280;61578;52.002;5.468;2023-01-23T02:02:46;103544.44;;;2.96;86.46
73341;BME280;61578;52.002;5.468;2023-01-23T02:03:00;103547.09;;;2.99;86.36
73341;BME280;61578;52.002;5.468;2023-01-23T02:03:33;103540.09;;;2.98;86.59
73341;BME280;61578;52.002;5.468;2023-01-23T02:04:06;103540.09;;;2.95;86.41
73341;BME280;61578;52.002;5.468;2023-01-23T02:04:44;103542.72;;;2.95;86.61
73341;BME280;61578;52.002;5.468;2023-01-23T02:05:27;103529.50;;;2.89;86.54
73341;BME280;61578;52.002;5.468;2023-01-23T02:06:02;103494.25;;;2.66;86.88
73341;BME280;61578;52.002;5.468;2023-01-23T02:06:34;103542.75;;;3.00;86.46
73341;BME280;61578;52.002;5.468;2023-01-23T02:07:20;103539.19;;;2.94;86.36
73341;BME280;61578;52.002;5.468;2023-01-23T02:08:08;103545.41;;;3.03;86.65
73341;BME280;61578;52.002;5.468;2023-01-23T02:09:08;103545.38;;;3.01;86.27
73341;BME280;61578;52.002;5.468;2023-01-23T02:09:47;103543.63;;;3.02;86.63
73341;BME280;61578;52.002;5.468;2023-01-23T02:10:20;103548.00;;;3.01;86.30
73341;BME280;61578;52.002;5.468;2023-01-23T02:10:52;103547.13;;;3.01;86.47
73341;BME280;61578;52.002;5.468;2023-01-23T02:11:23;103544.53;;;3.02;86.18
73341;BME280;61578;52.002;5.468;2023-01-23T02:11:54;103548.81;;;2.95;86.20
73341;BME280;61578;52.002;5.468;2023-01-23T02:12:25;103550.69;;;3.04;86.35
73341;BME280;61578;52.002;5.468;2023-01-23T02:13:25;103541.91;;;3.02;86.44
73341;BME280;61578;52.002;5.468;2023-01-23T02:14:08;103545.41;;;3.03;86.30
73341;BME280;61578;52.002;5.468;2023-01-23T02:14:40;103543.66;;;3.03;86.41
73341;BME280;61578;52.002;5.468;2023-01-23T02:15:11;103554.19;;;3.05;86.35
73341;BME280;61578;52.002;5.468;2023-01-23T02:15:42;103541.91;;;3.04;86.09
73341;BME280;61578;52.002;5.468;2023-01-23T02:16:17;103554.19;;;3.05;86.29
73341;BME280;61578;52.002;5.468;2023-01-23T02:16:50;103548.00;;;3.01;86.04
73341;BME280;61578;52.002;5.468;2023-01-23T02:17:22;103559.38;;;3.02;86.39
73341;BME280;61578;52.002;5.468;2023-01-23T02:17:53;103544.56;;;3.05;86.45
73341;BME280;61578;52.002;5.468;2023-01-23T02:18:26;103544.53;;;3.04;85.94
73341;BME280;61578;52.002;5.468;2023-01-23T02:19:03;103548.00;;;3.00;86.23
73341;BME280;61578;52.002;5.468;2023-01-23T02:19:57;103546.25;;;3.02;86.50
73341;BME280;61578;52.002;5.468;2023-01-23T02:20:46;103533.97;;;2.99;86.41
73341;BME280;61578;52.002;5.468;2023-01-23T02:21:20;103550.66;;;3.03;86.39
73341;BME280;61578;52.002;5.468;2023-01-23T02:22:53;103548.03;;;3.03;86.29
73341;BME280;61578;52.002;5.468;2023-01-23T02:24:28;103511.06;;;2.81;86.23
73341;BME280;61578;52.002;5.468;2023-01-23T02:26:17;103548.03;;;3.03;86.33
73341;BME280;61578;52.002;5.468;2023-01-23T02:26:51;103546.25;;;3.02;86.32
73341;BME280;61578;52.002;5.468;2023-01-23T02:27:22;103551.50;;;3.00;86.24
73341;BME280;61578;52.002;5.468;2023-01-23T02:27:53;103565.56;;;3.05;86.27
73341;BME280;61578;52.002;5.468;2023-01-23T02:28:39;103557.69;;;3.05;86.18
73341;BME280;61578;52.002;5.468;2023-01-23T02:29:12;103555.06;;;3.05;86.34
73341;BME280;61578;52.002;5.468;2023-01-23T02:29:45;103555.91;;;3.03;86.57
73341;BME280;61578;52.002;5.468;2023-01-23T02:30:19;103557.66;;;3.04;86.04
73341;BME280;61578;52.002;5.468;2023-01-23T02:30:50;103562.91;;;3.02;86.37
73341;BME280;61578;52.002;5.468;2023-01-23T02:31:22;103497.00;;;2.73;86.43
73341;BME280;61578;52.002;5.468;2023-01-23T02:31:52;103550.63;;;3.01;86.35
73341;BME280;61578;52.002;5.468;2023-01-23T02:32:25;103549.72;;;2.99;86.56
73341;BME280;61578;52.002;5.468;2023-01-23T02:34:02;103554.16;;;3.06;86.54
73341;BME280;61578;52.002;5.468;2023-01-23T02:34:34;103555.94;;;3.07;86.36
73341;BME280;61578;52.002;5.468;2023-01-23T02:35:20;103559.41;;;3.06;86.42
73341;BME280;61578;52.002;5.468;2023-01-23T02:35:58;103558.56;;;3.07;86.43
73341;BME280;61578;52.002;5.468;2023-01-23T02:36:33;103559.41;;;3.06;86.61
73341;BME280;61578;52.002;5.468;2023-01-23T02:37:06;103564.66;;;3.06;86.43
73341;BME280;61578;52.002;5.468;2023-01-23T02:37:44;103496.09;;;2.73;86.72
73341;BME280;61578;52.002;5.468;2023-01-23T02:38:19;103556.75;;;3.02;86.52
73341;BME280;61578;52.002;5.468;2023-01-23T02:39:31;103553.28;;;3.03;86.80
73341;BME280;61578;52.002;5.468;2023-01-23T02:40:02;103554.16;;;3.03;86.64
73341;BME280;61578;52.002;5.468;2023-01-23T02:40:37;103498.69;;;2.70;86.69
73341;BME280;61578;52.002;5.468;2023-01-23T02:41:12;103555.03;;;3.02;86.46
73341;BME280;61578;52.002;5.468;2023-01-23T02:41:48;103554.09;;;2.99;86.77
73341;BME280;61578;52.002;5.468;2023-01-23T02:42:23;103562.91;;;3.02;86.50
73341;BME280;61578;52.002;5.468;2023-01-23T02:42:55;103498.69;;;2.70;86.67
73341;BME280;61578;52.002;5.468;2023-01-23T02:43:32;103558.50;;;3.01;86.37
73341;BME280;61578;52.002;5.468;2023-01-23T02:44:41;103546.19;;;2.94;86.94
73341;BME280;61578;52.002;5.468;2023-01-23T02:45:12;103557.59;;;2.99;86.60
73341;BME280;61578;52.002;5.468;2023-01-23T02:45:43;103561.13;;;3.01;87.11
73341;BME280;61578;52.002;5.468;2023-01-23T02:46:14;103504.81;;;2.70;86.61
73341;BME280;61578;52.002;5.468;2023-01-23T02:46:48;103571.63;;;3.01;86.61
73341;BME280;61578;52.002;5.468;2023-01-23T02:47:18;103557.59;;;2.99;86.83
73341;BME280;61578;52.002;5.468;2023-01-23T02:47:49;103544.31;;;2.85;87.05
73341;BME280;61578;52.002;5.468;2023-01-23T02:48:21;103563.75;;;3.01;86.90
73341;BME280;61578;52.002;5.468;2023-01-23T02:48:52;103555.84;;;2.98;86.81
73341;BME280;61578;52.002;5.468;2023-01-23T02:49:23;103559.31;;;2.95;86.91
73341;BME280;61578;52.002;5.468;2023-01-23T02:49:54;103547.94;;;2.93;86.85
73341;BME280;61578;52.002;5.468;2023-01-23T02:50:24;103560.22;;;2.99;86.88
73341;BME280;61578;52.002;5.468;2023-01-23T02:50:55;103569.81;;;2.97;86.79
73341;BME280;61578;52.002;5.468;2023-01-23T02:51:26;103569.00;;;3.01;87.00
73341;BME280;61578;52.002;5.468;2023-01-23T02:51:57;103562.00;;;3.00;86.84
73341;BME280;61578;52.002;5.468;2023-01-23T02:52:27;103553.22;;;2.95;86.85
73341;BME280;61578;52.002;5.468;2023-01-23T02:53:00;103556.72;;;2.99;87.01
73341;BME280;61578;52.002;5.468;2023-01-23T02:53:31;103556.69;;;2.97;86.61
73341;BME280;61578;52.002;5.468;2023-01-23T02:54:02;103561.13;;;3.01;86.77
73341;BME280;61578;52.002;5.468;2023-01-23T02:54:33;103567.25;;;3.02;87.13
73341;BME280;61578;52.002;5.468;2023-01-23T02:55:04;103499.56;;;2.70;86.85
73341;BME280;61578;52.002;5.468;2023-01-23T02:55:35;103563.75;;;3.01;87.08
73341;BME280;61578;52.002;5.468;2023-01-23T02:56:08;103578.63;;;3.01;86.85
73341;BME280;61578;52.002;5.468;2023-01-23T02:56:39;103569.88;;;3.02;86.76
73341;BME280;61578;52.002;5.468;2023-01-23T02:57:11;103566.38;;;3.01;86.90
73341;BME280;61578;52.002;5.468;2023-01-23T02:57:43;103572.53;;;3.03;86.99
73341;BME280;61578;52.002;5.468;2023-01-23T02:58:14;103563.72;;;3.00;86.49
73341;BME280;61578;52.002;5.468;2023-01-23T02:59:03;103531.13;;;2.78;86.54
73341;BME280;61578;52.002;5.468;2023-01-23T02:59:52;103568.16;;;3.04;86.65
73341;BME280;61578;52.002;5.468;2023-01-23T03:00:42;103525.88;;;2.78;86.79
73341;BME280;61578;52.002;5.468;2023-01-23T03:01:13;103565.53;;;3.02;86.96
73341;BME280;61578;52.002;5.468;2023-01-23T03:01:44;103568.16;;;3.02;86.67
73341;BME280;61578;52.002;5.468;2023-01-23T03:02:14;103574.25;;;3.01;86.79
73341;BME280;61578;52.002;5.468;2023-01-23T03:02:49;103574.25;;;3.01;87.01
73341;BME280;61578;52.002;5.468;2023-01-23T03:03:20;103563.69;;;2.96;86.59
73341;BME280;61578;52.002;5.468;2023-01-23T03:03:52;103544.31;;;2.84;86.76
73341;BME280;61578;52.002;5.468;2023-01-23T03:04:26;103514.41;;;2.68;87.03